sensor_id;sensor_type;location;lat;lon;timestamp;P1;durP1;ratioP1;P2;durP2;ratioP2
16705;SDS011;8469;60.136;15.180;2023-12-04T00:00:23;1.70;;;1.60;;
16705;SDS011;8469;60.136;15.180;2023-12-04T00:02:50;1.57;;;1.47;;
16705;SDS011;8469;60.136;15.180;2023-12-04T00:05:18;1.20;;;1.10;;
16705;SDS011;8469;60.136;15.180;2023-12-04T00:07:45;1.57;;;1.30;;
16705;SDS011;8469;60.136;15.180;2023-12-04T00:10:12;1.37;;;1.27;;
16705;SDS011;8469;60.136;15.180;2023-12-04T00:12:40;1.30;;;1.20;;
16705;SDS011;8469;60.136;15.180;2023-12-04T00:15:07;1.63;;;1.27;;
16705;SDS011;8469;60.136;15.180;2023-12-04T00:17:35;1.30;;;1.20;;
16705;SDS011;8469;60.136;15.180;2023-12-04T00:20:04;1.55;;;1.25;;
16705;SDS011;8469;60.136;15.180;2023-12-04T00:22:32;1.37;;;1.27;;
16705;SDS011;8469;60.136;15.180;2023-12-04T00:24:59;1.10;;;1.00;;
16705;SDS011;8469;60.136;15.180;2023-12-04T00:27:27;1.55;;;1.45;;
16705;SDS011;8469;60.136;15.180;2023-12-04T00:29:54;1.20;;;1.10;;
16705;SDS011;8469;60.136;15.180;2023-12-04T00:32:21;1.40;;;1.30;;
16705;SDS011;8469;60.136;15.180;2023-12-04T00:34:49;1.90;;;1.30;;
16705;SDS011;8469;60.136;15.180;2023-12-04T00:37:16;1.87;;;1.42;;
16705;SDS011;8469;60.136;15.180;2023-12-04T00:39:43;1.10;;;1.00;;
16705;SDS011;8469;60.136;15.180;2023-12-04T00:42:11;1.50;;;1.30;;
16705;SDS011;8469;60.136;15.180;2023-12-04T00:44:38;1.20;;;1.20;;
16705;SDS011;8469;60.136;15.180;2023-12-04T00:47:05;1.35;;;1.25;;
16705;SDS011;8469;60.136;15.180;2023-12-04T00:49:33;1.40;;;1.30;;
16705;SDS011;8469;60.136;15.180;2023-12-04T00:52:00;1.30;;;1.20;;
16705;SDS011;8469;60.136;15.180;2023-12-04T00:54:27;1.20;;;1.10;;
16705;SDS011;8469;60.136;15.180;2023-12-04T00:56:55;1.30;;;1.20;;
16705;SDS011;8469;60.136;15.180;2023-12-04T00:59:22;1.30;;;1.20;;
16705;SDS011;8469;60.136;15.180;2023-12-04T01:01:49;1.33;;;1.20;;
16705;SDS011;8469;60.136;15.180;2023-12-04T01:04:17;1.35;;;1.25;;
16705;SDS011;8469;60.136;15.180;2023-12-04T01:06:44;1.30;;;1.17;;
16705;SDS011;8469;60.136;15.180;2023-12-04T01:09:12;1.30;;;1.20;;
16705;SDS011;8469;60.136;15.180;2023-12-04T01:11:39;1.42;;;1.20;;
16705;SDS011;8469;60.136;15.180;2023-12-04T01:14:07;1.40;;;1.30;;
16705;SDS011;8469;60.136;15.180;2023-12-04T01:16:34;1.22;;;1.12;;
16705;SDS011;8469;60.136;15.180;2023-12-04T01:19:01;1.57;;;1.47;;
16705;SDS011;8469;60.136;15.180;2023-12-04T01:21:29;1.32;;;1.20;;
16705;SDS011;8469;60.136;15.180;2023-12-04T01:23:55;1.10;;;1.10;;
16705;SDS011;8469;60.136;15.180;2023-12-04T01:26:24;1.92;;;1.20;;
16705;SDS011;8469;60.136;15.180;2023-12-04T01:28:51;1.32;;;1.22;;
16705;SDS011;8469;60.136;15.180;2023-12-04T01:31:18;1.40;;;1.30;;
16705;SDS011;8469;60.136;15.180;2023-12-04T01:33:45;1.12;;;1.05;;
16705;SDS011;8469;60.136;15.180;2023-12-04T01:36:13;0.98;;;0.98;;
16705;SDS011;8469;60.136;15.180;2023-12-04T01:38:40;1.12;;;1.07;;
16705;SDS011;8469;60.136;15.180;2023-12-04T01:41:07;1.00;;;1.00;;
16705;SDS011;8469;60.136;15.180;2023-12-04T01:43:35;1.02;;;1.02;;
16705;SDS011;8469;60.136;15.180;2023-12-04T01:46:02;1.50;;;1.30;;
16705;SDS011;8469;60.136;15.180;2023-12-04T01:48:30;1.30;;;1.20;;
16705;SDS011;8469;60.136;15.180;2023-12-04T01:50:58;1.37;;;1.25;;
16705;SDS011;8469;60.136;15.180;2023-12-04T01:53:27;1.17;;;1.10;;
16705;SDS011;8469;60.136;15.180;2023-12-04T01:55:54;1.20;;;1.10;;
16705;SDS011;8469;60.136;15.180;2023-12-04T01:58:22;1.22;;;1.12;;
16705;SDS011;8469;60.136;15.180;2023-12-04T02:00:49;0.85;;;0.85;;
16705;SDS011;8469;60.136;15.180;2023-12-04T02:03:17;1.40;;;1.30;;
16705;SDS011;8469;60.136;15.180;2023-12-04T02:05:44;1.20;;;1.10;;
16705;SDS011;8469;60.136;15.180;2023-12-04T02:08:12;1.27;;;1.17;;
16705;SDS011;8469;60.136;15.180;2023-12-04T02:10:39;1.90;;;1.02;;
16705;SDS011;8469;60.136;15.180;2023-12-04T02:13:06;1.05;;;1.05;;
16705;SDS011;8469;60.136;15.180;2023-12-04T02:15:34;1.20;;;1.10;;
16705;SDS011;8469;60.136;15.180;2023-12-04T02:18:02;1.50;;;1.10;;
16705;SDS011;8469;60.136;15.180;2023-12-04T02:20:31;1.10;;;1.07;;
16705;SDS011;8469;60.136;15.180;2023-12-04T02:23:00;1.30;;;1.20;;
16705;SDS011;8469;60.136;15.180;2023-12-04T02:25:28;1.27;;;1.17;;
16705;SDS011;8469;60.136;15.180;2023-12-04T02:27:56;1.17;;;1.07;;
16705;SDS011;8469;60.136;15.180;2023-12-04T02:30:24;1.40;;;1.30;;
16705;SDS011;8469;60.136;15.180;2023-12-04T02:32:53;1.15;;;1.12;;
16705;SDS011;8469;60.136;15.180;2023-12-04T02:35:22;1.35;;;1.25;;
16705;SDS011;8469;60.136;15.180;2023-12-04T02:37:49;1.50;;;1.00;;
16705;SDS011;8469;60.136;15.180;2023-12-04T02:40:17;1.20;;;1.10;;
16705;SDS011;8469;60.136;15.180;2023-12-04T02:42:45;1.00;;;0.95;;
16705;SDS011;8469;60.136;15.180;2023-12-04T02:45:12;1.00;;;0.90;;
16705;SDS011;8469;60.136;15.180;2023-12-04T02:47:40;2.70;;;1.23;;
16705;SDS011;8469;60.136;15.180;2023-12-04T02:50:07;1.10;;;1.10;;
16705;SDS011;8469;60.136;15.180;2023-12-04T02:52:34;1.20;;;1.10;;
16705;SDS011;8469;60.136;15.180;2023-12-04T02:55:02;1.55;;;1.45;;
16705;SDS011;8469;60.136;15.180;2023-12-04T02:57:29;1.72;;;1.22;;
16705;SDS011;8469;60.136;15.180;2023-12-04T02:59:57;1.47;;;1.20;;
16705;SDS011;8469;60.136;15.180;2023-12-04T03:02:24;1.02;;;1.02;;
16705;SDS011;8469;60.136;15.180;2023-12-04T03:04:51;1.65;;;1.20;;
16705;SDS011;8469;60.136;15.180;2023-12-04T03:07:18;1.00;;;1.00;;
16705;SDS011;8469;60.136;15.180;2023-12-04T03:09:47;1.70;;;1.35;;
16705;SDS011;8469;60.136;15.180;2023-12-04T03:12:15;1.42;;;1.32;;
16705;SDS011;8469;60.136;15.180;2023-12-04T03:14:42;1.10;;;1.10;;
16705;SDS011;8469;60.136;15.180;2023-12-04T03:17:09;1.30;;;1.20;;
16705;SDS011;8469;60.136;15.180;2023-12-04T03:19:36;1.57;;;1.20;;
16705;SDS011;8469;60.136;15.180;2023-12-04T03:22:04;1.00;;;0.90;;
16705;SDS011;8469;60.136;15.180;2023-12-04T03:24:31;1.10;;;0.70;;
16705;SDS011;8469;60.136;15.180;2023-12-04T03:26:58;1.70;;;1.40;;
16705;SDS011;8469;60.136;15.180;2023-12-04T03:29:26;1.30;;;0.90;;
16705;SDS011;8469;60.136;15.180;2023-12-04T03:31:53;1.30;;;1.20;;
16705;SDS011;8469;60.136;15.180;2023-12-04T03:34:20;0.80;;;0.80;;
16705;SDS011;8469;60.136;15.180;2023-12-04T03:36:48;0.87;;;0.87;;
16705;SDS011;8469;60.136;15.180;2023-12-04T03:39:15;0.93;;;0.93;;
16705;SDS011;8469;60.136;15.180;2023-12-04T03:41:42;0.80;;;0.80;;
16705;SDS011;8469;60.136;15.180;2023-12-04T03:44:10;1.02;;;0.90;;
16705;SDS011;8469;60.136;15.180;2023-12-04T03:46:37;1.02;;;1.02;;
16705;SDS011;8469;60.136;15.180;2023-12-04T03:49:05;1.20;;;1.20;;
16705;SDS011;8469;60.136;15.180;2023-12-04T03:51:32;1.20;;;1.10;;
16705;SDS011;8469;60.136;15.180;2023-12-04T03:53:59;1.20;;;1.10;;
16705;SDS011;8469;60.136;15.180;2023-12-04T03:56:27;1.30;;;1.10;;
16705;SDS011;8469;60.136;15.180;2023-12-04T03:58:54;1.30;;;1.20;;
16705;SDS011;8469;60.136;15.180;2023-12-04T04:01:21;1.20;;;1.10;;
16705;SDS011;8469;60.136;15.180;2023-12-04T04:03:49;1.30;;;1.20;;
16705;SDS011;8469;60.136;15.180;2023-12-04T04:06:16;1.15;;;1.10;;
16705;SDS011;8469;60.136;15.180;2023-12-04T04:08:43;1.15;;;1.15;;
16705;SDS011;8469;60.136;15.180;2023-12-04T04:11:11;1.25;;;1.15;;
16705;SDS011;8469;60.136;15.180;2023-12-04T04:13:38;1.40;;;1.00;;
16705;SDS011;8469;60.136;15.180;2023-12-04T04:16:06;1.45;;;1.35;;
16705;SDS011;8469;60.136;15.180;2023-12-04T04:18:34;1.32;;;1.22;;
16705;SDS011;8469;60.136;15.180;2023-12-04T04:21:01;1.00;;;1.00;;
16705;SDS011;8469;60.136;15.180;2023-12-04T04:23:29;1.12;;;1.10;;
16705;SDS011;8469;60.136;15.180;2023-12-04T04:25:56;1.00;;;1.00;;
16705;SDS011;8469;60.136;15.180;2023-12-04T04:28:23;1.27;;;1.17;;
16705;SDS011;8469;60.136;15.180;2023-12-04T04:30:51;2.67;;;1.27;;
16705;SDS011;8469;60.136;15.180;2023-12-04T04:33:18;1.57;;;1.00;;
16705;SDS011;8469;60.136;15.180;2023-12-04T04:35:45;1.30;;;1.20;;
16705;SDS011;8469;60.136;15.180;2023-12-04T04:38:13;0.90;;;0.90;;
16705;SDS011;8469;60.136;15.180;2023-12-04T04:40:40;1.80;;;1.30;;
16705;SDS011;8469;60.136;15.180;2023-12-04T04:43:12;1.30;;;1.20;;
16705;SDS011;8469;60.136;15.180;2023-12-04T04:45:40;1.22;;;1.17;;
16705;SDS011;8469;60.136;15.180;2023-12-04T04:48:07;1.75;;;1.35;;
16705;SDS011;8469;60.136;15.180;2023-12-04T04:50:34;1.47;;;1.37;;
16705;SDS011;8469;60.136;15.180;2023-12-04T04:53:02;1.20;;;1.10;;
16705;SDS011;8469;60.136;15.180;2023-12-04T04:55:29;1.82;;;1.27;;
16705;SDS011;8469;60.136;15.180;2023-12-04T04:57:58;1.45;;;1.32;;
16705;SDS011;8469;60.136;15.180;2023-12-04T05:00:25;1.60;;;1.50;;
16705;SDS011;8469;60.136;15.180;2023-12-04T05:02:53;2.60;;;1.50;;
16705;SDS011;8469;60.136;15.180;2023-12-04T05:05:20;1.60;;;1.50;;
16705;SDS011;8469;60.136;15.180;2023-12-04T05:07:47;1.40;;;1.30;;
16705;SDS011;8469;60.136;15.180;2023-12-04T05:10:15;1.75;;;1.50;;
16705;SDS011;8469;60.136;15.180;2023-12-04T05:12:42;1.62;;;1.52;;
16705;SDS011;8469;60.136;15.180;2023-12-04T05:15:09;1.55;;;1.30;;
16705;SDS011;8469;60.136;15.180;2023-12-04T05:17:37;3.30;;;1.35;;
16705;SDS011;8469;60.136;15.180;2023-12-04T05:20:04;1.42;;;1.32;;
16705;SDS011;8469;60.136;15.180;2023-12-04T05:22:32;1.60;;;1.50;;
16705;SDS011;8469;60.136;15.180;2023-12-04T05:24:59;1.30;;;1.20;;
16705;SDS011;8469;60.136;15.180;2023-12-04T05:27:27;1.50;;;1.40;;
16705;SDS011;8469;60.136;15.180;2023-12-04T05:29:55;2.95;;;1.67;;
16705;SDS011;8469;60.136;15.180;2023-12-04T05:32:22;1.72;;;1.55;;
16705;SDS011;8469;60.136;15.180;2023-12-04T05:34:49;1.92;;;1.50;;
16705;SDS011;8469;60.136;15.180;2023-12-04T05:37:17;6.72;;;3.05;;
16705;SDS011;8469;60.136;15.180;2023-12-04T05:39:44;3.90;;;2.33;;
16705;SDS011;8469;60.136;15.180;2023-12-04T05:42:11;2.42;;;1.50;;
16705;SDS011;8469;60.136;15.180;2023-12-04T05:44:39;2.05;;;1.57;;
16705;SDS011;8469;60.136;15.180;2023-12-04T05:47:06;3.50;;;1.40;;
16705;SDS011;8469;60.136;15.180;2023-12-04T05:49:34;1.75;;;1.35;;
16705;SDS011;8469;60.136;15.180;2023-12-04T05:52:01;1.50;;;1.30;;
16705;SDS011;8469;60.136;15.180;2023-12-04T05:54:29;4.05;;;1.30;;
16705;SDS011;8469;60.136;15.180;2023-12-04T05:56:56;2.27;;;1.42;;
16705;SDS011;8469;60.136;15.180;2023-12-04T05:59:24;2.30;;;1.30;;
16705;SDS011;8469;60.136;15.180;2023-12-04T06:01:52;1.50;;;1.40;;
16705;SDS011;8469;60.136;15.180;2023-12-04T06:04:19;1.95;;;1.30;;
16705;SDS011;8469;60.136;15.180;2023-12-04T06:06:46;1.52;;;1.40;;
16705;SDS011;8469;60.136;15.180;2023-12-04T06:09:13;2.10;;;1.40;;
16705;SDS011;8469;60.136;15.180;2023-12-04T06:11:42;1.45;;;1.35;;
16705;SDS011;8469;60.136;15.180;2023-12-04T06:14:10;1.40;;;1.30;;
16705;SDS011;8469;60.136;15.180;2023-12-04T06:16:37;1.22;;;1.20;;
16705;SDS011;8469;60.136;15.180;2023-12-04T06:19:04;1.60;;;1.50;;
16705;SDS011;8469;60.136;15.180;2023-12-04T06:21:32;6.03;;;2.52;;
16705;SDS011;8469;60.136;15.180;2023-12-04T06:23:59;4.28;;;2.08;;
16705;SDS011;8469;60.136;15.180;2023-12-04T06:26:27;3.25;;;1.82;;
16705;SDS011;8469;60.136;15.180;2023-12-04T06:28:54;2.27;;;1.40;;
16705;SDS011;8469;60.136;15.180;2023-12-04T06:31:22;4.83;;;1.85;;
16705;SDS011;8469;60.136;15.180;2023-12-04T06:33:49;1.95;;;1.47;;
16705;SDS011;8469;60.136;15.180;2023-12-04T06:36:16;1.90;;;1.50;;
16705;SDS011;8469;60.136;15.180;2023-12-04T06:38:46;2.90;;;1.72;;
16705;SDS011;8469;60.136;15.180;2023-12-04T06:41:14;1.45;;;1.35;;
16705;SDS011;8469;60.136;15.180;2023-12-04T06:43:42;1.50;;;1.40;;
16705;SDS011;8469;60.136;15.180;2023-12-04T06:46:09;1.75;;;1.65;;
16705;SDS011;8469;60.136;15.180;2023-12-04T06:48:37;1.47;;;1.30;;
16705;SDS011;8469;60.136;15.180;2023-12-04T06:51:05;2.70;;;1.30;;
16705;SDS011;8469;60.136;15.180;2023-12-04T06:53:32;1.50;;;1.40;;
16705;SDS011;8469;60.136;15.180;2023-12-04T06:56:00;1.75;;;1.40;;
16705;SDS011;8469;60.136;15.180;2023-12-04T06:58:27;1.62;;;1.30;;
16705;SDS011;8469;60.136;15.180;2023-12-04T07:00:54;1.37;;;1.20;;
16705;SDS011;8469;60.136;15.180;2023-12-04T07:03:22;1.30;;;1.20;;
16705;SDS011;8469;60.136;15.180;2023-12-04T07:05:49;1.77;;;1.37;;
16705;SDS011;8469;60.136;15.180;2023-12-04T07:08:16;2.08;;;1.40;;
16705;SDS011;8469;60.136;15.180;2023-12-04T07:10:44;1.55;;;1.45;;
16705;SDS011;8469;60.136;15.180;2023-12-04T07:13:11;2.17;;;1.50;;
16705;SDS011;8469;60.136;15.180;2023-12-04T07:15:39;6.05;;;2.70;;
16705;SDS011;8469;60.136;15.180;2023-12-04T07:18:06;3.98;;;2.30;;
16705;SDS011;8469;60.136;15.180;2023-12-04T07:20:33;4.62;;;2.40;;
16705;SDS011;8469;60.136;15.180;2023-12-04T07:23:01;6.00;;;3.37;;
16705;SDS011;8469;60.136;15.180;2023-12-04T07:25:28;12.95;;;5.70;;
16705;SDS011;8469;60.136;15.180;2023-12-04T07:27:56;13.95;;;5.62;;
16705;SDS011;8469;60.136;15.180;2023-12-04T07:30:24;1.85;;;1.35;;
16705;SDS011;8469;60.136;15.180;2023-12-04T07:32:51;4.47;;;2.40;;
16705;SDS011;8469;60.136;15.180;2023-12-04T07:35:20;3.52;;;1.95;;
16705;SDS011;8469;60.136;15.180;2023-12-04T07:37:47;3.60;;;2.35;;
16705;SDS011;8469;60.136;15.180;2023-12-04T07:40:15;3.98;;;2.12;;
16705;SDS011;8469;60.136;15.180;2023-12-04T07:42:42;2.25;;;2.05;;
16705;SDS011;8469;60.136;15.180;2023-12-04T07:45:10;4.92;;;2.10;;
16705;SDS011;8469;60.136;15.180;2023-12-04T07:47:37;2.42;;;1.70;;
16705;SDS011;8469;60.136;15.180;2023-12-04T07:50:05;2.08;;;1.65;;
16705;SDS011;8469;60.136;15.180;2023-12-04T07:52:33;1.30;;;1.20;;
16705;SDS011;8469;60.136;15.180;2023-12-04T07:55:00;1.47;;;1.37;;
16705;SDS011;8469;60.136;15.180;2023-12-04T07:57:27;1.50;;;1.40;;
16705;SDS011;8469;60.136;15.180;2023-12-04T07:59:55;1.80;;;1.60;;
16705;SDS011;8469;60.136;15.180;2023-12-04T08:02:22;3.70;;;1.40;;
16705;SDS011;8469;60.136;15.180;2023-12-04T08:04:50;1.85;;;1.42;;
16705;SDS011;8469;60.136;15.180;2023-12-04T08:07:17;2.45;;;1.62;;
16705;SDS011;8469;60.136;15.180;2023-12-04T08:09:45;1.40;;;1.30;;
16705;SDS011;8469;60.136;15.180;2023-12-04T08:12:12;2.20;;;1.40;;
16705;SDS011;8469;60.136;15.180;2023-12-04T08:14:39;1.85;;;1.37;;
16705;SDS011;8469;60.136;15.180;2023-12-04T08:17:07;1.30;;;1.20;;
16705;SDS011;8469;60.136;15.180;2023-12-04T08:19:34;1.45;;;1.35;;
16705;SDS011;8469;60.136;15.180;2023-12-04T08:22:03;1.60;;;1.50;;
16705;SDS011;8469;60.136;15.180;2023-12-04T08:24:31;1.47;;;1.37;;
16705;SDS011;8469;60.136;15.180;2023-12-04T08:26:58;1.32;;;1.22;;
16705;SDS011;8469;60.136;15.180;2023-12-04T08:29:26;1.30;;;1.20;;
16705;SDS011;8469;60.136;15.180;2023-12-04T08:31:53;1.57;;;1.37;;
16705;SDS011;8469;60.136;15.180;2023-12-04T08:34:20;1.30;;;1.20;;
16705;SDS011;8469;60.136;15.180;2023-12-04T08:36:48;1.35;;;1.22;;
16705;SDS011;8469;60.136;15.180;2023-12-04T08:39:15;1.32;;;1.22;;
16705;SDS011;8469;60.136;15.180;2023-12-04T08:41:45;1.83;;;1.53;;
16705;SDS011;8469;60.136;15.180;2023-12-04T08:44:14;1.75;;;1.50;;
16705;SDS011;8469;60.136;15.180;2023-12-04T08:46:44;1.67;;;1.57;;
16705;SDS011;8469;60.136;15.180;2023-12-04T08:49:12;3.30;;;1.60;;
16705;SDS011;8469;60.136;15.180;2023-12-04T08:51:39;2.50;;;2.08;;
16705;SDS011;8469;60.136;15.180;2023-12-04T08:54:06;2.27;;;1.40;;
16705;SDS011;8469;60.136;15.180;2023-12-04T08:56:34;2.22;;;1.70;;
16705;SDS011;8469;60.136;15.180;2023-12-04T08:59:01;1.60;;;1.50;;
16705;SDS011;8469;60.136;15.180;2023-12-04T09:01:28;1.60;;;1.50;;
16705;SDS011;8469;60.136;15.180;2023-12-04T09:03:56;2.08;;;1.42;;
16705;SDS011;8469;60.136;15.180;2023-12-04T09:06:23;1.10;;;1.10;;
16705;SDS011;8469;60.136;15.180;2023-12-04T09:08:50;1.70;;;1.40;;
16705;SDS011;8469;60.136;15.180;2023-12-04T09:11:18;1.90;;;1.37;;
16705;SDS011;8469;60.136;15.180;2023-12-04T09:13:45;1.30;;;1.20;;
16705;SDS011;8469;60.136;15.180;2023-12-04T09:16:12;1.10;;;1.00;;
16705;SDS011;8469;60.136;15.180;2023-12-04T09:18:40;1.40;;;1.30;;
16705;SDS011;8469;60.136;15.180;2023-12-04T09:21:07;1.52;;;1.00;;
16705;SDS011;8469;60.136;15.180;2023-12-04T09:23:35;1.20;;;1.15;;
16705;SDS011;8469;60.136;15.180;2023-12-04T09:26:02;1.32;;;1.10;;
16705;SDS011;8469;60.136;15.180;2023-12-04T09:28:30;1.20;;;1.10;;
16705;SDS011;8469;60.136;15.180;2023-12-04T09:30:57;1.30;;;1.20;;
16705;SDS011;8469;60.136;15.180;2023-12-04T09:33:24;1.00;;;1.00;;
16705;SDS011;8469;60.136;15.180;2023-12-04T09:35:53;1.17;;;1.00;;
16705;SDS011;8469;60.136;15.180;2023-12-04T09:38:20;1.30;;;1.20;;
16705;SDS011;8469;60.136;15.180;2023-12-04T09:40:47;1.95;;;1.30;;
16705;SDS011;8469;60.136;15.180;2023-12-04T09:43:17;1.57;;;1.27;;
16705;SDS011;8469;60.136;15.180;2023-12-04T09:45:44;1.12;;;1.12;;
16705;SDS011;8469;60.136;15.180;2023-12-04T09:48:12;1.20;;;1.00;;
16705;SDS011;8469;60.136;15.180;2023-12-04T09:50:39;1.40;;;1.30;;
16705;SDS011;8469;60.136;15.180;2023-12-04T09:53:08;1.55;;;1.05;;
16705;SDS011;8469;60.136;15.180;2023-12-04T09:55:36;1.27;;;1.20;;
16705;SDS011;8469;60.136;15.180;2023-12-04T09:58:03;1.42;;;1.32;;
16705;SDS011;8469;60.136;15.180;2023-12-04T10:00:30;1.52;;;1.40;;
16705;SDS011;8469;60.136;15.180;2023-12-04T10:02:58;3.70;;;2.20;;
16705;SDS011;8469;60.136;15.180;2023-12-04T10:05:26;2.37;;;1.30;;
16705;SDS011;8469;60.136;15.180;2023-12-04T10:07:54;2.25;;;1.25;;
16705;SDS011;8469;60.136;15.180;2023-12-04T10:10:21;1.65;;;1.40;;
16705;SDS011;8469;60.136;15.180;2023-12-04T10:12:48;1.55;;;1.10;;
16705;SDS011;8469;60.136;15.180;2023-12-04T10:15:15;1.85;;;1.30;;
16705;SDS011;8469;60.136;15.180;2023-12-04T10:17:43;1.70;;;1.50;;
16705;SDS011;8469;60.136;15.180;2023-12-04T10:20:14;2.35;;;1.45;;
16705;SDS011;8469;60.136;15.180;2023-12-04T10:22:55;1.42;;;1.32;;
16705;SDS011;8469;60.136;15.180;2023-12-04T10:25:24;1.32;;;1.22;;
16705;SDS011;8469;60.136;15.180;2023-12-04T10:27:51;0.93;;;0.90;;
16705;SDS011;8469;60.136;15.180;2023-12-04T10:30:27;1.32;;;1.22;;
16705;SDS011;8469;60.136;15.180;2023-12-04T10:32:57;2.05;;;1.52;;
16705;SDS011;8469;60.136;15.180;2023-12-04T10:35:30;1.57;;;1.25;;
16705;SDS011;8469;60.136;15.180;2023-12-04T10:37:58;1.25;;;1.15;;
16705;SDS011;8469;60.136;15.180;2023-12-04T10:40:26;1.35;;;1.25;;
16705;SDS011;8469;60.136;15.180;2023-12-04T10:45:40;1.57;;;1.32;;
16705;SDS011;8469;60.136;15.180;2023-12-04T10:48:08;1.52;;;1.42;;
16705;SDS011;8469;60.136;15.180;2023-12-04T10:50:41;1.20;;;1.10;;
16705;SDS011;8469;60.136;15.180;2023-12-04T10:53:05;3.13;;;2.20;;
16705;SDS011;8469;60.136;15.180;2023-12-04T10:55:34;1.40;;;1.30;;
16705;SDS011;8469;60.136;15.180;2023-12-04T10:58:01;1.60;;;1.20;;
16705;SDS011;8469;60.136;15.180;2023-12-04T11:00:35;1.60;;;1.25;;
16705;SDS011;8469;60.136;15.180;2023-12-04T11:03:09;1.50;;;1.40;;
16705;SDS011;8469;60.136;15.180;2023-12-04T11:05:40;1.35;;;1.10;;
16705;SDS011;8469;60.136;15.180;2023-12-04T11:08:06;1.15;;;1.15;;
16705;SDS011;8469;60.136;15.180;2023-12-04T11:10:37;1.30;;;1.20;;
16705;SDS011;8469;60.136;15.180;2023-12-04T11:13:06;1.00;;;1.00;;
16705;SDS011;8469;60.136;15.180;2023-12-04T11:15:35;1.20;;;1.10;;
16705;SDS011;8469;60.136;15.180;2023-12-04T11:18:04;1.00;;;1.00;;
16705;SDS011;8469;60.136;15.180;2023-12-04T11:20:33;1.00;;;1.00;;
16705;SDS011;8469;60.136;15.180;2023-12-04T11:23:01;1.17;;;1.07;;
16705;SDS011;8469;60.136;15.180;2023-12-04T11:25:32;1.00;;;1.00;;
16705;SDS011;8469;60.136;15.180;2023-12-04T11:28:01;1.47;;;1.37;;
16705;SDS011;8469;60.136;15.180;2023-12-04T11:30:29;1.80;;;1.60;;
16705;SDS011;8469;60.136;15.180;2023-12-04T11:32:57;2.23;;;1.37;;
16705;SDS011;8469;60.136;15.180;2023-12-04T11:35:25;1.65;;;1.55;;
16705;SDS011;8469;60.136;15.180;2023-12-04T11:37:53;1.50;;;1.40;;
16705;SDS011;8469;60.136;15.180;2023-12-04T11:40:20;1.20;;;1.10;;
16705;SDS011;8469;60.136;15.180;2023-12-04T11:42:48;1.47;;;1.32;;
16705;SDS011;8469;60.136;15.180;2023-12-04T11:45:18;1.07;;;1.07;;
16705;SDS011;8469;60.136;15.180;2023-12-04T11:47:50;1.20;;;1.10;;
16705;SDS011;8469;60.136;15.180;2023-12-04T11:50:18;1.17;;;1.02;;
16705;SDS011;8469;60.136;15.180;2023-12-04T11:52:46;1.30;;;1.15;;
16705;SDS011;8469;60.136;15.180;2023-12-04T11:55:20;1.32;;;1.22;;
16705;SDS011;8469;60.136;15.180;2023-12-04T11:57:45;0.95;;;0.93;;
16705;SDS011;8469;60.136;15.180;2023-12-04T12:00:18;0.93;;;0.93;;
16705;SDS011;8469;60.136;15.180;2023-12-04T12:02:47;1.40;;;1.10;;
16705;SDS011;8469;60.136;15.180;2023-12-04T12:05:15;1.30;;;1.20;;
16705;SDS011;8469;60.136;15.180;2023-12-04T12:07:43;1.50;;;1.17;;
16705;SDS011;8469;60.136;15.180;2023-12-04T12:10:11;1.27;;;1.17;;
16705;SDS011;8469;60.136;15.180;2023-12-04T12:12:45;1.80;;;1.50;;
16705;SDS011;8469;60.136;15.180;2023-12-04T12:15:13;1.62;;;1.22;;
16705;SDS011;8469;60.136;15.180;2023-12-04T12:17:41;2.87;;;1.22;;
16705;SDS011;8469;60.136;15.180;2023-12-04T12:20:09;1.32;;;1.22;;
16705;SDS011;8469;60.136;15.180;2023-12-04T12:22:37;1.20;;;1.10;;
16705;SDS011;8469;60.136;15.180;2023-12-04T12:25:07;1.50;;;1.40;;
16705;SDS011;8469;60.136;15.180;2023-12-04T12:27:35;1.22;;;1.15;;
16705;SDS011;8469;60.136;15.180;2023-12-04T12:30:03;2.05;;;1.25;;
16705;SDS011;8469;60.136;15.180;2023-12-04T12:32:31;1.57;;;1.30;;
16705;SDS011;8469;60.136;15.180;2023-12-04T12:34:58;7.90;;;3.90;;
16705;SDS011;8469;60.136;15.180;2023-12-04T12:37:25;2.92;;;1.70;;
16705;SDS011;8469;60.136;15.180;2023-12-04T12:39:53;2.25;;;1.35;;
16705;SDS011;8469;60.136;15.180;2023-12-04T12:42:27;1.00;;;1.00;;
16705;SDS011;8469;60.136;15.180;2023-12-04T12:44:55;1.42;;;1.30;;
16705;SDS011;8469;60.136;15.180;2023-12-04T12:47:23;1.40;;;1.30;;
16705;SDS011;8469;60.136;15.180;2023-12-04T12:49:50;1.77;;;1.60;;
16705;SDS011;8469;60.136;15.180;2023-12-04T12:52:19;2.40;;;1.20;;
16705;SDS011;8469;60.136;15.180;2023-12-04T12:54:46;1.52;;;1.40;;
16705;SDS011;8469;60.136;15.180;2023-12-04T12:57:14;1.72;;;1.20;;
16705;SDS011;8469;60.136;15.180;2023-12-04T12:59:41;1.90;;;1.40;;
16705;SDS011;8469;60.136;15.180;2023-12-04T13:02:09;2.98;;;1.60;;
16705;SDS011;8469;60.136;15.180;2023-12-04T13:04:40;2.02;;;1.57;;
16705;SDS011;8469;60.136;15.180;2023-12-04T13:07:05;1.60;;;1.50;;
16705;SDS011;8469;60.136;15.180;2023-12-04T13:09:33;1.40;;;1.30;;
16705;SDS011;8469;60.136;15.180;2023-12-04T13:12:02;2.90;;;1.35;;
16705;SDS011;8469;60.136;15.180;2023-12-04T13:14:31;2.22;;;1.40;;
16705;SDS011;8469;60.136;15.180;2023-12-04T13:16:58;1.52;;;1.30;;
16705;SDS011;8469;60.136;15.180;2023-12-04T13:19:25;1.67;;;1.52;;
16705;SDS011;8469;60.136;15.180;2023-12-04T13:21:53;1.20;;;1.20;;
16705;SDS011;8469;60.136;15.180;2023-12-04T13:24:20;1.95;;;1.40;;
16705;SDS011;8469;60.136;15.180;2023-12-04T13:26:48;1.45;;;1.25;;
16705;SDS011;8469;60.136;15.180;2023-12-04T13:29:15;1.75;;;1.60;;
16705;SDS011;8469;60.136;15.180;2023-12-04T13:31:44;1.67;;;1.50;;
16705;SDS011;8469;60.136;15.180;2023-12-04T13:34:13;1.50;;;1.40;;
16705;SDS011;8469;60.136;15.180;2023-12-04T13:36:40;1.50;;;1.40;;
16705;SDS011;8469;60.136;15.180;2023-12-04T13:39:07;1.72;;;1.40;;
16705;SDS011;8469;60.136;15.180;2023-12-04T13:41:36;4.50;;;1.60;;
16705;SDS011;8469;60.136;15.180;2023-12-04T13:44:21;3.12;;;1.57;;
16705;SDS011;8469;60.136;15.180;2023-12-04T13:46:49;1.55;;;1.30;;
16705;SDS011;8469;60.136;15.180;2023-12-04T13:49:17;2.13;;;1.60;;
16705;SDS011;8469;60.136;15.180;2023-12-04T13:51:45;1.87;;;1.37;;
16705;SDS011;8469;60.136;15.180;2023-12-04T13:54:15;1.52;;;1.42;;
16705;SDS011;8469;60.136;15.180;2023-12-04T13:56:44;1.63;;;1.30;;
16705;SDS011;8469;60.136;15.180;2023-12-04T13:59:12;1.80;;;1.52;;
16705;SDS011;8469;60.136;15.180;2023-12-04T14:01:46;2.33;;;1.60;;
16705;SDS011;8469;60.136;15.180;2023-12-04T14:04:14;4.03;;;1.60;;
16705;SDS011;8469;60.136;15.180;2023-12-04T14:06:41;2.47;;;1.82;;
16705;SDS011;8469;60.136;15.180;2023-12-04T14:09:08;4.50;;;2.20;;
16705;SDS011;8469;60.136;15.180;2023-12-04T14:11:45;6.10;;;2.30;;
16705;SDS011;8469;60.136;15.180;2023-12-04T14:14:10;2.72;;;1.92;;
16705;SDS011;8469;60.136;15.180;2023-12-04T14:16:39;3.90;;;2.27;;
16705;SDS011;8469;60.136;15.180;2023-12-04T14:19:07;4.85;;;2.55;;
16705;SDS011;8469;60.136;15.180;2023-12-04T14:21:34;6.53;;;2.85;;
16705;SDS011;8469;60.136;15.180;2023-12-04T14:24:02;5.10;;;2.75;;
16705;SDS011;8469;60.136;15.180;2023-12-04T14:26:29;4.15;;;2.00;;
16705;SDS011;8469;60.136;15.180;2023-12-04T14:28:56;5.22;;;2.10;;
16705;SDS011;8469;60.136;15.180;2023-12-04T14:31:25;1.60;;;1.50;;
16705;SDS011;8469;60.136;15.180;2023-12-04T14:33:53;2.45;;;1.90;;
16705;SDS011;8469;60.136;15.180;2023-12-04T14:36:20;3.12;;;1.90;;
16705;SDS011;8469;60.136;15.180;2023-12-04T14:38:52;3.35;;;2.08;;
16705;SDS011;8469;60.136;15.180;2023-12-04T14:41:32;3.83;;;2.52;;
16705;SDS011;8469;60.136;15.180;2023-12-04T14:46:46;3.22;;;2.30;;
16705;SDS011;8469;60.136;15.180;2023-12-04T14:49:13;4.25;;;2.27;;
16705;SDS011;8469;60.136;15.180;2023-12-04T14:51:40;2.27;;;2.00;;
16705;SDS011;8469;60.136;15.180;2023-12-04T14:54:09;2.20;;;1.90;;
16705;SDS011;8469;60.136;15.180;2023-12-04T14:56:43;2.62;;;1.90;;